AirNav   Air Wisconsin pilot careers
 
 965 users online  

E95 Benson Municipal Airport
Benson, Arizona, USA

GOING TO BENSON?


FAA INFORMATION EFFECTIVE 16 AUGUST 2018

Location

FAA Identifier: E95
Lat/Long: 31-59-58.0000N / 110-21-28.7000W
31-59.966667N / 110-21.478333W
31.9994444 / -110.3579722
(estimated)
Elevation: 3830.9 ft. / 1167.7 m (surveyed)
Variation: 12E (1995)
From city: 3 miles NW of BENSON, AZ
Time zone: UTC -7 (year round; does not observe DST)
Zip code: 85602

Airport Operations

Airport use: Open to the public
Activation date: 11/1999
Control tower: no
ARTCC: ALBUQUERQUE CENTER
FSS: PRESCOTT FLIGHT SERVICE STATION
NOTAMs facility: PRC (NOTAM-D service available)
Attendance: CONTINUOUS
Wind indicator: lighted
Segmented circle: yes
Lights: ACTVT MIRL RY 10/28 - CTAF.
Beacon: white-green (lighted land airport)
Operates sunset to sunrise.

Airport Communications

CTAF/UNICOM: 122.8
WX AWOS-3: 118.475 (520-586-4409)

Nearby radio navigation aids

VOR radial/distance  VOR name  Freq  Var
FHUr347/24.6LIBBY VOR/DME113.6013E
TUSr089/28.9TUCSON VORTAC116.0012E

 
NDB name  Hdg/Dist  Freq  Var  ID
DRAGOO345/24.841013EDAO -.. .- ---

Airport Services

Fuel available: 100LL JET-A
Parking: tiedowns
Airframe service: MAJOR
Powerplant service: MAJOR

Runway Information

Runway 10/28

Dimensions: 4002 x 75 ft. / 1220 x 23 m
Surface: asphalt, in excellent condition
Weight bearing capacity: 
Single wheel: 12.5
Runway edge lights: medium intensity
RUNWAY 10  RUNWAY 28
Latitude: 32-00.027858N31-59.906303N
Longitude: 110-21.858230W110-21.097155W
Elevation: 3830.9 ft.3803.8 ft.
Gradient: 0.7% UP
Traffic pattern: leftleft
Runway heading: 089 magnetic, 101 true269 magnetic, 281 true
Markings: basic, in good conditionbasic, in good condition
Visual slope indicator: 2-light PAPI on left (3.00 degrees glide path)2-light PAPI on left (3.00 degrees glide path)
Runway end identifier lights: yesyes
Touchdown point: yes, no lightsyes, no lights
Obstructions: 5 ft. brush, 220 ft. from runway, 4:1 slope to clear
RY 10, 5-8 FT BRUSH 0-200 FT FM THRESHOLD, 105-125 FT RIGHT OF CNTRLN.
8 ft. brush, 235 ft. from runway, 45 ft. left of centerline, 4:1 slope to clear
RY 28, +4-6 FT. BRUSH 0-50 FT. FROM THRESHOLD, 120-125 FT. RIGHT OF CENTERLINE; +4 FT. BRUSH 130 FT. FROM THRESHOLD, 30 FT. LEFT OF CENTERLINE; +3 FT. BRUSH 150 FT. FROM THRESHOLD, 10 FT. LEFT OF CENTERLINE.

Airport Ownership and Management from official FAA records

Ownership: Publicly-owned
Owner: CITY OF BENSON
P.O BOX 2223
BENSON, AZ 85602
Phone 520-586-2245
Manager: BRAD HAMILTON
P.O BOX 2223
BENSON, AZ 85602
Phone 520-586-2245

Airport Operational Statistics

Aircraft based on the field: 38
Single engine airplanes: 32
Multi engine airplanes: 1
Jet airplanes: 2
Helicopters: 1
Ultralights: 2
    
Aircraft operations: avg 67/day *
61% transient general aviation
37% local general aviation
2% military
* for 12-month period ending 15 April 2017

Additional Remarks

RY 10 HAS FOUR 15 FT DITCHES BOTH SIDES OF RY ENDS & WEST HALF OF RY WITH HEADWALLS 130 FT SOUTH OF CENTERLINE.
RY 10, 110 FT TWY EXTENDS FM RY THRESHOLD TO WEST.
LIVESTOCK ON OR INVOF AIRPORT.
ERRATIC WIND CURRENTS .5 NM FM THRESHOLD WHEN WINDS ARE IN EXCESS OF 10 KTS.
FOR CD CTC TUS APCH AT 520-829-6121.

Instrument Procedures

There are no published instrument procedures at E95.

Some nearby airports with instrument procedures:

KFHU - Sierra Vista Municipal Airport-Libby Army Airfield (25 nm S)
P33 - Cochise County Airport (28 nm NE)
KDMA - Davis Monthan Air Force Base (29 nm W)
KTUS - Tucson International Airport (30 nm W)
KRYN - Ryan Field Airport (42 nm W)
 
Loc | Ops | Rwys | IFR | FBO | Links
Com | Nav | Svcs | Stats | Notes


 
Area around E95 (Benson Municipal Airport)
 
Road maps at: MapQuest Bing Google
 
Aerial photo
WARNING: Photo may not be current or correct
Aerial photo of E95 (Benson Municipal Airport)
Photo by Jassen Photography
Photo taken 13-Nov-2015
looking northwest.

Do you have a better or more recent aerial photo of Benson Municipal Airport that you would like to share? If so, please send us your photo.

 
Sectional chart

 
Airport distance calculator
Flying to Benson Municipal Airport? Find the distance to fly.

From to E95

Sunrise and sunset
Times for 17-Aug-2018
 Local
(UTC-7)
 Zulu
(UTC)
Morning civil twilight05:2312:23
Sunrise05:4812:48
Sunset19:0302:03
Evening civil twilight19:2802:28

Current date and time
Zulu (UTC)  18-Aug-2018 01:44:49
Local (UTC-7)  17-Aug-2018 18:44:49
 
METAR
KFHU 
24nm S 
180058Z AUTO 32007KT 10SM CLR 29/15 A3021 RMK AO2 SLP157 T02860150
KDMA 
28nm W 
180059Z AUTO 30013KT 10SM CLR 36/16 A3002 RMK AO2 WSHFT 55 SLP118 $
KTUS 
31nm W 
180053Z 29006KT 10SM CLR 35/17 A3004 RMK AO2 SLP119 T03500167
KRYN 
42nm W 
180045Z 35009G14KT 10SM CLR 34/18 A3002
KOLS 
43nm SW 
180105Z AUTO 24006KT 10SM VCTS CLR 31/18 A3013 RMK AO2 LTG DSNT NE T03060183
TAF
KFHU 
24nm S 
171922Z 1719/1824 36009KT 9999 FEW035 QNH3024INS TEMPO 1719/1723 VRB12G20KT -TSRA SCT050CB TEMPO 1802/1805 9000 -SHRA BECMG 1805/1806 VRB06KT 9999 FEW080 QNH3021INS BECMG 1815/1816 25009KT 9999 FEW060 SCT120 QNH3024INS BECMG 1821/1822 27012G18KT 9999 VCTS SCT060CB BKN100 QNH3018INS TX32/1723Z TN22/1812Z
KDMA 
28nm W 
172205Z 1722/1904 29009KT 9999 FEW060 SCT100 QNH3004INS BECMG 1800/1801 31012G18KT 9999 VCTS BKN060CB BKN120 QNH3002INS BECMG 1803/1804 15009KT 9999 NSW SCT065 QNH3009INS BECMG 1818/1819 31009KT 9999 SCT100 QNH3011INS BECMG 1822/1823 29012G20KT 9999 VCTS BKN100CB QNH3007INS BECMG 1902/1903 VRB20G30KT 9000 -TSRA BKN070CB BKN100 QNH2998INS TX40/1723Z TN24/1812Z
NOTAMs
Click for the latest NOTAMs
NOTAMs are issued by the DoD/FAA and will open in a separate window not controlled by AirNav.

 

 
 

FBO, Fuel Providers, and Aircraft Ground Support

  
 Business Name 
 
 Contact 
 
 Services / Description 
 
Fuel Prices
 
Comments
  
 Southwestern Aviation, LLC
UNICOM 122.80
520-586-3262
[web site]
[email]
Aviation fuel, Aircraft parking (ramp or tiedown), Flight training, Aircraft rental, Aerial tours / aerial sightseeing, Aviation accessories, ...

More info about Southwestern Aviation, LLC
Avfuel
100LL Jet A
FS $5.25 $5.25 
 Updated 17-Aug-2018
 
   73 read write
FS=Full service
Update Fuel Prices
 

Would you like to see your business listed on this page?

 If your business provides an interesting product or service to pilots, flight crews, aircraft, or users of the Benson Municipal Airport, you should consider listing it here.  To start the listing process, click on the button below
 
Add a business
 

Other Pages about Benson Municipal Airport

www.cityofbenson.com/commfac.htm
 
Update a link
 
Copyright © AirNav, LLC. All rights reserved. Privacy Policy  Contact